createdAt,value
2019-01-27T00:01:16.629Z,81.78
2019-01-27T00:03:48.434Z,82.03
2019-01-27T00:06:20.145Z,82.18
2019-01-27T00:08:51.794Z,82.53
2019-01-27T00:11:23.521Z,82.55
2019-01-27T00:13:55.180Z,82.59
2019-01-27T00:16:26.777Z,82.90
2019-01-27T00:18:58.429Z,82.97
2019-01-27T00:21:30.397Z,83.22
2019-01-27T00:24:02.231Z,83.44
2019-01-27T00:26:33.902Z,83.27
2019-01-27T00:29:05.798Z,83.76
2019-01-27T00:31:37.471Z,83.64
2019-01-27T00:34:09.136Z,83.82
2019-01-27T00:36:40.726Z,83.70
2019-01-27T00:39:12.358Z,83.57
2019-01-27T00:41:44.277Z,83.50
2019-01-27T00:44:16.159Z,83.64
2019-01-27T00:46:48.820Z,83.85
2019-01-27T00:49:20.400Z,83.95
2019-01-27T00:51:52.065Z,84.11
2019-01-27T00:54:23.707Z,84.01
2019-01-27T00:56:55.350Z,84.37
2019-01-27T00:59:26.986Z,84.19
2019-01-27T01:01:59.651Z,84.88
2019-01-27T01:04:31.229Z,85.40
2019-01-27T01:07:02.808Z,85.40
2019-01-27T01:09:34.438Z,85.73
2019-01-27T01:12:06.125Z,85.45
2019-01-27T01:14:37.763Z,85.47
2019-01-27T01:17:09.354Z,85.62
2019-01-27T01:19:41.001Z,85.33
2019-01-27T01:22:12.692Z,85.10
2019-01-27T01:24:44.280Z,84.89
2019-01-27T01:27:16.197Z,84.92
2019-01-27T01:29:48.136Z,85.16
2019-01-27T01:32:19.744Z,84.79
2019-01-27T01:34:51.388Z,84.57
2019-01-27T01:37:23.183Z,84.24
2019-01-27T01:39:54.796Z,84.08
2019-01-27T01:42:26.443Z,84.29
2019-01-27T01:44:58.028Z,84.46
2019-01-27T01:47:29.625Z,84.17
2019-01-27T01:50:01.253Z,84.07
2019-01-27T01:52:32.888Z,83.96
2019-01-27T01:55:04.500Z,84.43
2019-01-27T01:57:36.185Z,85.11
2019-01-27T02:00:09.698Z,84.23
2019-01-27T02:02:41.366Z,84.26
2019-01-27T02:05:13.234Z,84.26
2019-01-27T02:07:45.011Z,84.02
2019-01-27T02:10:19.359Z,84.55
2019-01-27T02:12:51.542Z,84.30
2019-01-27T02:15:56.689Z,84.55
2019-01-27T02:18:28.404Z,84.23
2019-01-27T02:21:00.013Z,83.89
2019-01-27T02:23:31.709Z,83.85
2019-01-27T02:26:03.334Z,83.61
2019-01-27T02:28:35.989Z,83.81
2019-01-27T02:31:07.641Z,83.65
2019-01-27T02:33:39.242Z,84.02
2019-01-27T02:36:10.872Z,85.32
2019-01-27T02:38:42.525Z,84.40
2019-01-27T02:41:14.369Z,84.40
2019-01-27T02:43:47.420Z,84.09
2019-01-27T02:46:19.361Z,84.76
2019-01-27T02:48:51.301Z,85.33
2019-01-27T02:51:22.870Z,84.58
2019-01-27T02:53:54.541Z,84.95
2019-01-27T02:56:26.189Z,84.53
2019-01-27T02:58:57.840Z,84.89
2019-01-27T03:01:29.476Z,84.82
2019-01-27T03:04:01.144Z,84.98
2019-01-27T03:06:40.196Z,84.94
2019-01-27T03:09:26.870Z,85.20
2019-01-27T03:11:58.434Z,85.65
2019-01-27T03:14:30.094Z,86.10
2019-01-27T03:17:01.741Z,85.89
2019-01-27T03:19:33.388Z,87.33
2019-01-27T03:22:04.946Z,88.05
2019-01-27T03:24:38.010Z,88.46
2019-01-27T03:27:09.635Z,88.33
2019-01-27T03:29:41.288Z,88.69
2019-01-27T03:32:12.933Z,88.60
2019-01-27T03:34:44.638Z,88.27
2019-01-27T03:37:16.255Z,88.49
2019-01-27T03:39:48.248Z,87.63
2019-01-27T03:42:19.872Z,88.21
2019-01-27T03:44:51.480Z,88.48
2019-01-27T03:47:23.107Z,88.43
2019-01-27T03:49:54.678Z,89.34
2019-01-27T03:52:26.261Z,89.55
2019-01-27T03:54:57.851Z,89.68
2019-01-27T03:57:29.428Z,89.74
2019-01-27T04:00:01.038Z,89.78
2019-01-27T04:02:32.663Z,89.99
2019-01-27T04:05:04.289Z,89.95
2019-01-27T04:07:36.341Z,89.86
2019-01-27T04:10:17.655Z,89.80
2019-01-27T04:12:49.363Z,89.27
2019-01-27T04:15:21.450Z,89.12
2019-01-27T04:17:53.976Z,89.59
2019-01-27T04:20:25.537Z,89.70
2019-01-27T04:22:57.197Z,89.83
2019-01-27T04:25:28.800Z,89.98
2019-01-27T04:28:00.438Z,90.14
2019-01-27T04:30:34.507Z,90.15
2019-01-27T04:33:06.178Z,90.10
2019-01-27T04:35:37.769Z,90.25
2019-01-27T04:38:09.334Z,90.16
2019-01-27T04:40:40.942Z,90.01
2019-01-27T04:43:12.512Z,89.84
2019-01-27T04:45:44.334Z,89.70
2019-01-27T04:48:16.251Z,89.23
2019-01-27T04:50:48.125Z,89.32
2019-01-27T04:53:19.713Z,89.30
2019-01-27T04:55:51.322Z,89.28
2019-01-27T04:58:22.943Z,89.04
2019-01-27T05:00:54.522Z,89.04
2019-01-27T05:03:48.168Z,88.92
2019-01-27T05:06:19.743Z,88.41
2019-01-27T05:08:51.391Z,87.68
2019-01-27T05:11:22.959Z,87.36
2019-01-27T05:13:54.603Z,87.33
2019-01-27T05:16:26.256Z,87.02
2019-01-27T05:18:57.838Z,86.77
2019-01-27T05:21:29.487Z,86.66
2019-01-27T05:24:01.063Z,87.15
2019-01-27T05:26:32.708Z,86.97
2019-01-27T05:29:04.254Z,86.80
2019-01-27T05:31:35.846Z,86.94
2019-01-27T05:34:08.401Z,86.71
2019-01-27T05:36:39.997Z,86.76
2019-01-27T05:39:11.568Z,87.19
2019-01-27T05:41:43.170Z,87.00
2019-01-27T05:44:15.033Z,86.65
2019-01-27T05:46:46.632Z,86.40
2019-01-27T05:49:18.348Z,85.92
2019-01-27T05:51:50.502Z,86.02
2019-01-27T05:54:22.653Z,85.69
2019-01-27T05:56:56.628Z,86.27
2019-01-27T05:59:27.505Z,86.35
2019-01-27T06:01:59.075Z,85.47
2019-01-27T06:04:31.628Z,84.83
2019-01-27T06:07:03.233Z,84.59
2019-01-27T06:09:34.807Z,84.53
2019-01-27T06:12:06.462Z,85.48
2019-01-27T06:14:38.066Z,84.61
2019-01-27T06:17:09.650Z,85.32
2019-01-27T06:19:41.218Z,84.88
2019-01-27T06:22:12.879Z,84.64
2019-01-27T06:24:44.461Z,84.50
2019-01-27T06:27:16.266Z,84.92
2019-01-27T06:29:48.119Z,84.93
2019-01-27T06:32:43.109Z,84.84
2019-01-27T06:35:15.032Z,85.17
2019-01-27T06:37:46.728Z,85.14
2019-01-27T06:40:18.405Z,85.57
2019-01-27T06:42:50.021Z,85.48
2019-01-27T06:45:21.578Z,84.82
2019-01-27T06:47:53.228Z,85.67
2019-01-27T06:50:24.773Z,85.13
2019-01-27T06:52:56.340Z,85.00
2019-01-27T06:55:27.900Z,84.75
2019-01-27T06:57:59.505Z,84.86
2019-01-27T07:00:49.995Z,85.16
2019-01-27T07:03:43.347Z,85.36
2019-01-27T07:06:35.553Z,85.56
2019-01-27T07:09:28.398Z,85.76
2019-01-27T07:12:08.558Z,85.51
2019-01-27T07:14:48.532Z,85.73
2019-01-27T07:17:44.979Z,85.68
2019-01-27T07:20:53.691Z,85.74
2019-01-27T07:23:43.992Z,85.59
2019-01-27T07:26:34.472Z,85.57
2019-01-27T07:29:23.941Z,85.24
2019-01-27T07:32:14.416Z,85.19
2019-01-27T07:35:03.895Z,84.76
2019-01-27T07:37:55.692Z,85.26
2019-01-27T07:40:34.319Z,84.75
2019-01-27T07:43:36.758Z,84.64
2019-01-27T07:46:27.822Z,84.49
2019-01-27T07:49:17.240Z,84.49
2019-01-27T07:52:06.296Z,84.16
2019-01-27T07:55:09.856Z,83.81
2019-01-27T07:58:00.417Z,83.71
2019-01-27T08:00:36.233Z,83.45
2019-01-27T08:03:30.722Z,83.70
2019-01-27T08:06:12.706Z,83.79
2019-01-27T08:08:58.605Z,83.47
2019-01-27T08:11:49.869Z,83.23
2019-01-27T08:14:41.690Z,83.11
2019-01-27T08:17:21.233Z,83.20
2019-01-27T08:20:10.064Z,83.11
2019-01-27T08:22:55.450Z,83.12
2019-01-27T08:25:49.292Z,83.23
2019-01-27T08:28:55.291Z,82.97
2019-01-27T08:31:54.965Z,82.97
2019-01-27T08:34:43.412Z,83.04
2019-01-27T08:37:37.113Z,83.06
2019-01-27T08:40:40.285Z,82.92
2019-01-27T08:43:37.011Z,82.87
2019-01-27T08:46:20.859Z,82.25
2019-01-27T08:48:52.981Z,82.04
2019-01-27T08:51:24.759Z,81.83
2019-01-27T08:53:59.476Z,81.49
2019-01-27T08:56:31.142Z,81.29
2019-01-27T08:59:02.695Z,81.70
2019-01-27T09:02:11.508Z,81.40
2019-01-27T09:05:02.569Z,81.57
2019-01-27T09:07:53.391Z,81.79
2019-01-27T09:10:34.289Z,81.53
2019-01-27T09:13:39.962Z,81.61
2019-01-27T09:16:30.506Z,81.44
2019-01-27T09:19:20.219Z,81.52
2019-01-27T09:22:13.884Z,80.90
2019-01-27T09:25:03.113Z,80.52
2019-01-27T09:27:51.676Z,80.11
2019-01-27T09:30:40.838Z,79.75
2019-01-27T09:33:29.030Z,79.53
2019-01-27T09:36:19.569Z,80.20
2019-01-27T09:39:13.407Z,79.67
2019-01-27T09:42:09.970Z,79.22
2019-01-27T09:44:56.545Z,78.78
2019-01-27T09:47:47.074Z,79.05
2019-01-27T09:50:30.201Z,79.03
2019-01-27T09:53:09.374Z,79.01
2019-01-27T09:55:56.794Z,79.30
2019-01-27T09:58:53.115Z,79.79
2019-01-27T10:01:49.777Z,79.90
2019-01-27T10:04:41.756Z,80.47
2019-01-27T10:07:24.964Z,79.34
2019-01-27T10:10:25.158Z,79.46
2019-01-27T10:13:24.538Z,79.29
2019-01-27T10:16:24.797Z,79.54
2019-01-27T10:19:27.188Z,79.72
2019-01-27T10:22:10.767Z,79.47
2019-01-27T10:25:16.069Z,80.10
2019-01-27T10:28:03.674Z,79.71
2019-01-27T10:31:01.686Z,79.25
2019-01-27T10:33:55.723Z,79.28
2019-01-27T10:36:39.781Z,79.10
2019-01-27T10:39:33.159Z,79.16
2019-01-27T10:42:27.962Z,79.43
2019-01-27T10:45:21.643Z,79.52
2019-01-27T10:48:18.492Z,79.27
2019-01-27T10:51:12.147Z,79.58
2019-01-27T10:54:05.460Z,79.44
2019-01-27T10:56:43.781Z,79.11
2019-01-27T10:59:37.959Z,78.73
2019-01-27T11:02:38.146Z,78.48
2019-01-27T11:05:33.061Z,78.95
2019-01-27T11:08:36.422Z,79.69
2019-01-27T11:11:24.480Z,79.50
2019-01-27T11:14:13.419Z,79.01
2019-01-27T11:17:06.949Z,79.24
2019-01-27T11:20:03.680Z,79.09
2019-01-27T11:22:52.638Z,78.97
2019-01-27T11:25:39.505Z,78.95
2019-01-27T11:28:28.914Z,79.22
2019-01-27T11:31:17.919Z,79.88
2019-01-27T11:34:08.748Z,79.49
2019-01-27T11:36:57.696Z,79.31
2019-01-27T11:39:54.034Z,79.07
2019-01-27T11:42:42.482Z,79.08
2019-01-27T11:45:27.354Z,79.39
2019-01-27T11:48:20.256Z,79.31
2019-01-27T11:51:13.613Z,79.10
2019-01-27T11:53:45.385Z,78.79
2019-01-27T11:56:18.058Z,78.78
2019-01-27T11:58:49.681Z,78.65
2019-01-27T12:01:21.842Z,79.23
2019-01-27T12:03:53.529Z,78.97
2019-01-27T12:06:25.237Z,78.72
2019-01-27T12:08:57.174Z,81.23
2019-01-27T12:11:28.878Z,79.09
2019-01-27T12:14:00.555Z,79.08
2019-01-27T12:16:32.378Z,78.89
2019-01-27T12:19:04.114Z,78.90
2019-01-27T12:21:35.790Z,79.25
2019-01-27T12:24:07.457Z,79.07
2019-01-27T12:26:39.047Z,79.37
2019-01-27T12:29:10.676Z,79.30
2019-01-27T12:31:43.184Z,79.20
2019-01-27T12:34:14.917Z,80.74
2019-01-27T12:36:47.030Z,87.05
2019-01-27T12:39:20.520Z,81.21
2019-01-27T12:41:52.647Z,80.91
2019-01-27T12:44:24.308Z,80.84
2019-01-27T12:46:55.984Z,79.67
2019-01-27T12:49:27.704Z,78.87
2019-01-27T12:52:01.317Z,79.16
2019-01-27T12:54:32.977Z,79.07
2019-01-27T12:57:04.585Z,78.58
2019-01-27T12:59:36.657Z,79.38
2019-01-27T13:02:08.325Z,79.44
2019-01-27T13:04:40.068Z,79.53
2019-01-27T13:07:11.736Z,79.77
2019-01-27T13:09:43.320Z,79.38
2019-01-27T13:12:15.103Z,79.41
2019-01-27T13:14:46.948Z,79.68
2019-01-27T13:17:18.620Z,79.77
2019-01-27T13:19:53.890Z,79.54
2019-01-27T13:22:23.606Z,79.07
2019-01-27T13:24:55.202Z,79.73
2019-01-27T13:27:26.798Z,79.65
2019-01-27T13:29:58.440Z,79.11
2019-01-27T13:32:30.085Z,79.15
2019-01-27T13:35:01.726Z,78.71
2019-01-27T13:37:33.380Z,78.48
2019-01-27T13:40:05.508Z,78.23
2019-01-27T13:42:38.332Z,78.20
2019-01-27T13:45:13.210Z,78.31
2019-01-27T13:47:45.147Z,76.32
2019-01-27T13:50:17.059Z,76.20
2019-01-27T13:52:49.980Z,76.81
2019-01-27T13:55:27.691Z,76.42
2019-01-27T13:57:59.409Z,76.27
2019-01-27T14:00:34.095Z,75.98
2019-01-27T14:03:05.813Z,77.12
2019-01-27T14:05:37.629Z,76.47
2019-01-27T14:08:09.479Z,76.99
2019-01-27T14:10:41.118Z,77.06
2019-01-27T14:13:12.727Z,76.81
2019-01-27T14:15:44.384Z,77.12
2019-01-27T14:18:16.225Z,77.44
2019-01-27T14:20:48.129Z,79.71
2019-01-27T14:23:20.180Z,80.92
2019-01-27T14:25:52.020Z,82.62
2019-01-27T14:28:23.681Z,80.72
2019-01-27T14:30:56.401Z,86.81
2019-01-27T14:33:27.978Z,87.19
2019-01-27T14:35:59.597Z,82.79
2019-01-27T14:38:31.289Z,82.83
2019-01-27T14:41:02.943Z,85.10
2019-01-27T14:43:34.538Z,85.58
2019-01-27T14:46:06.206Z,86.40
2019-01-27T14:48:37.923Z,86.03
2019-01-27T14:51:09.566Z,85.40
2019-01-27T14:53:43.716Z,85.52
2019-01-27T14:56:17.329Z,85.03
2019-01-27T14:59:00.102Z,85.24
2019-01-27T15:01:31.787Z,84.84
2019-01-27T15:04:03.477Z,84.26
2019-01-27T15:06:36.677Z,83.39
2019-01-27T15:09:09.864Z,83.50
2019-01-27T15:11:41.513Z,82.67
2019-01-27T15:14:24.802Z,82.25
2019-01-27T15:17:07.612Z,82.09
2019-01-27T15:19:53.034Z,82.59
2019-01-27T15:22:40.074Z,82.30
2019-01-27T15:25:27.407Z,82.35
2019-01-27T15:28:18.494Z,81.97
2019-01-27T15:31:06.372Z,81.91
2019-01-27T15:33:52.004Z,81.86
2019-01-27T15:36:27.231Z,81.92
2019-01-27T15:39:17.460Z,82.15
2019-01-27T15:42:01.070Z,81.00
2019-01-27T15:44:39.383Z,81.06
2019-01-27T15:47:11.113Z,81.31
2019-01-27T15:49:42.743Z,81.60
2019-01-27T15:52:14.391Z,80.28
2019-01-27T15:54:46.186Z,80.59
2019-01-27T15:57:17.993Z,80.14
2019-01-27T15:59:50.321Z,80.11
2019-01-27T16:02:22.424Z,80.04
2019-01-27T16:04:56.125Z,79.86
2019-01-27T16:07:28.344Z,79.86
2019-01-27T16:10:00.020Z,79.35
2019-01-27T16:12:31.693Z,79.53
2019-01-27T16:15:03.319Z,79.67
2019-01-27T16:17:34.989Z,80.51
2019-01-27T16:20:07.138Z,80.69
2019-01-27T16:22:38.827Z,80.95
2019-01-27T16:25:11.240Z,81.69
2019-01-27T16:27:44.352Z,81.04
2019-01-27T16:30:44.749Z,81.25
2019-01-27T16:33:19.839Z,81.25
2019-01-27T16:35:51.528Z,81.54
2019-01-27T16:38:23.168Z,81.67
2019-01-27T16:40:54.817Z,81.62
2019-01-27T16:43:26.866Z,81.58
2019-01-27T16:46:01.487Z,81.58
2019-01-27T16:48:36.461Z,81.67
2019-01-27T16:51:08.204Z,81.77
2019-01-27T16:53:40.426Z,81.41
2019-01-27T16:56:12.710Z,81.51
2019-01-27T16:58:45.367Z,81.22
2019-01-27T17:01:18.289Z,80.77
2019-01-27T17:03:50.395Z,80.94
2019-01-27T17:06:21.970Z,80.53
2019-01-27T17:08:57.535Z,80.64
2019-01-27T17:11:30.587Z,80.09
2019-01-27T17:14:05.634Z,79.89
2019-01-27T17:16:37.505Z,79.58
2019-01-27T17:19:09.101Z,79.71
2019-01-27T17:21:40.800Z,79.82
2019-01-27T17:24:12.462Z,79.36
2019-01-27T17:26:44.128Z,79.45
2019-01-27T17:29:15.814Z,78.92
2019-01-27T17:31:47.432Z,78.95
2019-01-27T17:34:19.554Z,77.92
2019-01-27T17:36:51.380Z,78.23
2019-01-27T17:39:23.340Z,78.18
2019-01-27T17:41:54.990Z,78.08
2019-01-27T17:44:26.662Z,77.96
2019-01-27T17:46:58.286Z,77.62
2019-01-27T17:49:29.926Z,78.64
2019-01-27T17:52:01.561Z,78.68
2019-01-27T17:54:33.236Z,78.23
2019-01-27T17:57:14.921Z,79.13
2019-01-27T18:00:11.346Z,78.86
2019-01-27T18:02:55.135Z,78.49
2019-01-27T18:05:37.730Z,78.67
2019-01-27T18:08:17.503Z,78.67
2019-01-27T18:10:54.076Z,78.77
2019-01-27T18:13:37.180Z,77.91
2019-01-27T18:16:13.457Z,77.96
2019-01-27T18:18:45.830Z,77.65
2019-01-27T18:21:20.326Z,77.48
2019-01-27T18:23:52.791Z,77.13
2019-01-27T18:26:25.144Z,76.91
2019-01-27T18:28:58.254Z,76.69
2019-01-27T18:31:31.008Z,76.44
2019-01-27T18:34:02.687Z,76.04
2019-01-27T18:36:34.394Z,76.17
2019-01-27T18:39:09.971Z,76.01
2019-01-27T18:41:42.211Z,76.25
2019-01-27T18:44:13.863Z,75.98
2019-01-27T18:46:45.552Z,76.12
2019-01-27T18:49:17.426Z,75.65
2019-01-27T18:51:49.111Z,75.74
2019-01-27T18:54:38.367Z,75.24
2019-01-27T18:57:33.753Z,75.49
2019-01-27T19:00:32.957Z,75.03
2019-01-27T19:03:09.954Z,75.13
2019-01-27T19:05:46.170Z,74.53
2019-01-27T19:08:25.155Z,74.72
2019-01-27T19:11:15.659Z,75.06
2019-01-27T19:14:24.310Z,74.71
2019-01-27T19:17:17.463Z,74.91
2019-01-27T19:20:08.652Z,74.50
2019-01-27T19:22:55.285Z,76.16
2019-01-27T19:25:39.485Z,77.68
2019-01-27T19:28:26.916Z,78.11
2019-01-27T19:31:17.830Z,77.59
2019-01-27T19:34:17.401Z,77.45
2019-01-27T19:37:07.412Z,78.31
2019-01-27T19:40:05.021Z,78.15
2019-01-27T19:42:58.723Z,77.64
2019-01-27T19:45:54.433Z,76.55
2019-01-27T19:48:47.405Z,77.20
2019-01-27T19:51:42.244Z,77.26
2019-01-27T19:54:31.538Z,77.08
2019-01-27T19:57:15.435Z,76.93
2019-01-27T20:00:02.837Z,75.80
2019-01-27T20:02:54.804Z,75.83
2019-01-27T20:05:45.430Z,75.89
2019-01-27T20:08:42.027Z,75.74
2019-01-27T20:11:31.629Z,75.54
2019-01-27T20:14:35.250Z,76.11
2019-01-27T20:17:29.395Z,75.52
2019-01-27T20:20:16.431Z,75.40
2019-01-27T20:23:01.384Z,75.02
2019-01-27T20:25:52.000Z,74.95
2019-01-27T20:28:31.634Z,74.59
2019-01-27T20:31:19.427Z,74.60
2019-01-27T20:34:09.471Z,74.62
2019-01-27T20:36:58.591Z,74.62
2019-01-27T20:39:37.263Z,74.27
2019-01-27T20:42:34.633Z,73.88
2019-01-27T20:45:21.364Z,73.84
2019-01-27T20:48:04.749Z,73.86
2019-01-27T20:50:53.656Z,73.95
2019-01-27T20:53:42.742Z,73.53
2019-01-27T20:56:27.468Z,73.55
2019-01-27T20:59:12.749Z,73.18
2019-01-27T21:02:00.393Z,73.56
2019-01-27T21:04:49.385Z,73.10
2019-01-27T21:07:53.574Z,73.31
2019-01-27T21:10:59.068Z,73.22
2019-01-27T21:13:49.962Z,72.96
2019-01-27T21:16:37.808Z,72.75
2019-01-27T21:19:16.496Z,72.73
2019-01-27T21:21:48.354Z,72.96
2019-01-27T21:24:20.343Z,72.65
2019-01-27T21:26:52.037Z,72.55
2019-01-27T21:29:23.996Z,72.78
2019-01-27T21:31:55.723Z,72.54
2019-01-27T21:34:27.397Z,72.44
2019-01-27T21:36:59.230Z,72.58
2019-01-27T21:39:31.007Z,72.39
2019-01-27T21:42:02.673Z,72.40
2019-01-27T21:44:34.351Z,72.14
2019-01-27T21:47:06.030Z,72.27
2019-01-27T21:49:37.692Z,72.45
2019-01-27T21:52:09.284Z,72.37
2019-01-27T21:54:40.937Z,72.42
2019-01-27T21:57:12.614Z,72.39
2019-01-27T21:59:44.275Z,72.24
2019-01-27T22:02:16.886Z,72.27
2019-01-27T22:04:48.526Z,72.31
2019-01-27T22:07:20.250Z,72.27
2019-01-27T22:09:52.034Z,72.17
2019-01-27T22:12:23.945Z,72.31
2019-01-27T22:14:55.525Z,72.30
2019-01-27T22:17:27.230Z,72.62
2019-01-27T22:19:58.891Z,72.60
2019-01-27T22:22:30.544Z,73.03
2019-01-27T22:25:02.118Z,72.77
2019-01-27T22:27:33.937Z,72.92
2019-01-27T22:30:06.874Z,73.02
2019-01-27T22:32:38.536Z,72.98
2019-01-27T22:35:11.083Z,73.19
2019-01-27T22:37:42.746Z,73.37
2019-01-27T22:40:15.350Z,74.08
2019-01-27T22:42:47.322Z,73.81
2019-01-27T22:45:19.220Z,73.90
2019-01-27T22:47:51.152Z,73.78
2019-01-27T22:50:22.785Z,73.96
2019-01-27T22:52:54.342Z,73.52
2019-01-27T22:55:25.984Z,73.60
2019-01-27T22:57:57.553Z,73.48
2019-01-27T23:00:58.582Z,73.62
2019-01-27T23:03:32.996Z,73.05
2019-01-27T23:06:04.637Z,73.14
2019-01-27T23:08:36.305Z,73.41
2019-01-27T23:11:08.970Z,73.37
2019-01-27T23:13:40.604Z,73.51
2019-01-27T23:16:12.237Z,73.81
2019-01-27T23:18:43.868Z,74.04
2019-01-27T23:21:15.486Z,73.99
2019-01-27T23:23:47.342Z,73.81
2019-01-27T23:26:19.210Z,74.09
2019-01-27T23:28:51.151Z,74.03
2019-01-27T23:31:22.785Z,74.15
2019-01-27T23:33:54.358Z,74.50
2019-01-27T23:36:25.994Z,74.58
2019-01-27T23:38:57.656Z,74.69
2019-01-27T23:41:29.225Z,75.03
2019-01-27T23:44:00.884Z,75.14
2019-01-27T23:46:32.525Z,75.32
2019-01-27T23:49:04.115Z,75.40
2019-01-27T23:51:35.755Z,75.57
2019-01-27T23:54:07.400Z,75.41
2019-01-27T23:56:39.039Z,75.17
2019-01-27T23:59:10.614Z,75.42
